createdAt,value
2022-11-08T00:00:08.913Z,12.2
2022-11-08T00:01:12.628Z,12.2
2022-11-08T00:02:16.234Z,12.2
2022-11-08T00:03:19.829Z,12.2
2022-11-08T00:04:23.276Z,12.2
2022-11-08T00:05:26.519Z,12.2
2022-11-08T00:06:29.133Z,12.2
2022-11-08T00:07:31.967Z,12.2
2022-11-08T00:08:35.142Z,12.2
2022-11-08T00:09:38.220Z,12.3
2022-11-08T00:10:41.214Z,12.3
2022-11-08T00:11:44.871Z,12.3
2022-11-08T00:12:48.117Z,12.3
2022-11-08T00:13:50.837Z,12.2
2022-11-08T00:14:53.828Z,12.2
2022-11-08T00:15:57.060Z,12.2
2022-11-08T00:17:00.216Z,12.2
2022-11-08T00:18:02.690Z,12.2
2022-11-08T00:19:06.062Z,12.3
2022-11-08T00:20:09.065Z,12.3
2022-11-08T00:21:11.346Z,12.3
2022-11-08T00:22:14.525Z,12.2
2022-11-08T00:23:17.287Z,12.2
2022-11-08T00:24:20.353Z,12.2
2022-11-08T00:25:22.343Z,12.2
2022-11-08T00:26:25.415Z,12.2
2022-11-08T00:27:28.335Z,12.2
2022-11-08T00:28:31.159Z,12.2
2022-11-08T00:29:34.031Z,12.2
2022-11-08T00:30:37.174Z,12.2
2022-11-08T00:31:40.636Z,12.2
2022-11-08T00:32:44.066Z,12.3
2022-11-08T00:33:46.885Z,12.3
2022-11-08T00:34:50.716Z,12.2
2022-11-08T00:35:53.802Z,12.2
2022-11-08T00:36:56.808Z,12.2
2022-11-08T00:37:59.613Z,12.2
2022-11-08T00:39:02.729Z,12.2
2022-11-08T00:40:05.811Z,12.2
2022-11-08T00:41:08.904Z,12.2
2022-11-08T00:42:12.347Z,12.2
2022-11-08T00:43:15.641Z,12.2
2022-11-08T00:44:18.861Z,12.2
2022-11-08T00:45:21.938Z,12.2
2022-11-08T00:46:24.820Z,12.2
2022-11-08T00:47:27.972Z,12.2
2022-11-08T00:48:31.329Z,12.3
2022-11-08T00:49:34.571Z,12.3
2022-11-08T00:50:37.660Z,12.2
2022-11-08T00:51:39.353Z,12.2
2022-11-08T00:52:42.151Z,12.2
2022-11-08T00:53:45.144Z,12.2
2022-11-08T00:54:48.338Z,12.2
2022-11-08T00:55:51.495Z,12.3
2022-11-08T00:56:54.286Z,12.3
2022-11-08T00:58:02.388Z,12.2
2022-11-08T00:59:06.113Z,12.2
2022-11-08T01:00:09.499Z,12.2
2022-11-08T01:01:13.003Z,12.2
2022-11-08T01:02:16.355Z,12.2
2022-11-08T01:03:19.586Z,12.2
2022-11-08T01:04:22.735Z,12.2
2022-11-08T01:05:25.341Z,12.2
2022-11-08T01:06:28.445Z,12.1
2022-11-08T01:07:30.956Z,12.1
2022-11-08T01:08:33.400Z,12.1
2022-11-08T01:09:35.922Z,12.1
2022-11-08T01:10:38.282Z,12.1
2022-11-08T01:11:41.391Z,12.1
2022-11-08T01:12:43.627Z,12.1
2022-11-08T01:13:46.426Z,12.1
2022-11-08T01:14:49.312Z,12.2
2022-11-08T01:15:53.238Z,12.2
2022-11-08T01:16:55.568Z,12.1
2022-11-08T01:17:58.927Z,12.1
2022-11-08T01:19:01.676Z,12.1
2022-11-08T01:20:05.477Z,12.1
2022-11-08T01:21:08.960Z,12.1
2022-11-08T01:22:12.764Z,12.1
2022-11-08T01:23:15.841Z,12.1
2022-11-08T01:24:19.188Z,12.1
2022-11-08T01:25:22.457Z,12.1
2022-11-08T01:26:25.291Z,12.1
2022-11-08T01:27:28.094Z,12.1
2022-11-08T01:28:30.885Z,12.1
2022-11-08T01:29:33.781Z,12.1
2022-11-08T01:30:36.530Z,12.1
2022-11-08T01:31:40.275Z,12.1
2022-11-08T01:32:43.612Z,12.1
2022-11-08T01:33:53.181Z,12.1
2022-11-08T01:34:56.271Z,12.1
2022-11-08T01:35:59.344Z,12.2
2022-11-08T01:37:01.914Z,12.2
2022-11-08T01:38:04.648Z,12.1
2022-11-08T01:39:06.883Z,12.2
2022-11-08T01:40:09.333Z,12.2
2022-11-08T01:41:12.120Z,12.2
2022-11-08T01:42:14.941Z,12.1
2022-11-08T01:43:18.099Z,12.2
2022-11-08T01:44:20.826Z,12.1
2022-11-08T01:45:23.157Z,12.2
2022-11-08T01:46:26.255Z,12.1
2022-11-08T01:47:29.094Z,12.1
2022-11-08T01:48:32.090Z,12.1
2022-11-08T01:49:35.537Z,12.2
2022-11-08T01:50:38.718Z,12.2
2022-11-08T01:51:41.588Z,12.2
2022-11-08T01:52:44.770Z,12.2
2022-11-08T01:53:47.662Z,12.2
2022-11-08T01:54:50.257Z,12.2
2022-11-08T01:55:53.683Z,12.2
2022-11-08T01:56:56.124Z,12.2
2022-11-08T01:57:59.033Z,12.2
2022-11-08T01:59:01.825Z,12.2
2022-11-08T02:00:04.724Z,12.1
2022-11-08T02:01:07.694Z,12.1
2022-11-08T02:02:11.824Z,12.1
2022-11-08T02:03:15.860Z,12.1
2022-11-08T02:04:18.856Z,12.1
2022-11-08T02:05:21.740Z,12.1
2022-11-08T02:06:24.567Z,12.1
2022-11-08T02:07:27.791Z,12.1
2022-11-08T02:08:30.332Z,12.1
2022-11-08T02:09:33.703Z,12.1
2022-11-08T02:10:36.869Z,12.1
2022-11-08T02:11:40.321Z,12
2022-11-08T02:12:43.311Z,12
2022-11-08T02:13:46.685Z,12
2022-11-08T02:14:50.183Z,12
2022-11-08T02:15:53.591Z,12
2022-11-08T02:16:57.327Z,12
2022-11-08T02:18:00.436Z,12
2022-11-08T02:19:03.533Z,12
2022-11-08T02:20:06.710Z,11.9
2022-11-08T02:21:10.064Z,11.9
2022-11-08T02:22:13.737Z,11.9
2022-11-08T02:23:17.083Z,11.9
2022-11-08T02:24:19.984Z,11.9
2022-11-08T02:25:22.796Z,11.9
2022-11-08T02:26:25.848Z,11.9
2022-11-08T02:27:28.924Z,11.9
2022-11-08T02:28:31.887Z,11.9
2022-11-08T02:29:35.251Z,11.9
2022-11-08T02:30:38.406Z,11.9
2022-11-08T02:31:41.187Z,11.9
2022-11-08T02:32:44.361Z,11.9
2022-11-08T02:33:46.830Z,11.9
2022-11-08T02:34:50.207Z,11.9
2022-11-08T02:35:53.010Z,11.8
2022-11-08T02:36:56.073Z,11.9
2022-11-08T02:37:59.096Z,11.9
2022-11-08T02:39:02.828Z,11.9
2022-11-08T02:40:06.210Z,11.9
2022-11-08T02:41:09.373Z,11.9
2022-11-08T02:42:12.242Z,11.9
2022-11-08T02:43:15.180Z,11.9
2022-11-08T02:44:17.612Z,11.9
2022-11-08T02:45:21.069Z,11.9
2022-11-08T02:46:23.643Z,11.9
2022-11-08T02:47:27.077Z,11.9
2022-11-08T02:48:30.508Z,11.9
2022-11-08T02:49:33.364Z,11.9
2022-11-08T02:50:36.743Z,11.9
2022-11-08T02:51:40.200Z,11.9
2022-11-08T02:52:43.654Z,11.9
2022-11-08T02:53:46.745Z,11.9
2022-11-08T02:54:49.833Z,11.9
2022-11-08T02:55:52.720Z,11.9
2022-11-08T02:56:56.392Z,11.9
2022-11-08T02:57:58.656Z,11.9
2022-11-08T02:59:00.910Z,11.9
2022-11-08T03:00:03.989Z,11.9
2022-11-08T03:01:06.929Z,11.9
2022-11-08T03:02:11.433Z,11.9
2022-11-08T03:03:14.773Z,11.9
2022-11-08T03:04:17.581Z,11.9
2022-11-08T03:05:20.216Z,11.9
2022-11-08T03:06:23.137Z,11.9
2022-11-08T03:07:27.023Z,11.9
2022-11-08T03:08:30.090Z,11.9
2022-11-08T03:09:32.910Z,11.9
2022-11-08T03:10:36.346Z,11.9
2022-11-08T03:11:39.551Z,11.9
2022-11-08T03:12:42.949Z,11.9
2022-11-08T03:13:45.853Z,11.9
2022-11-08T03:14:48.290Z,11.9
2022-11-08T03:15:50.439Z,11.9
2022-11-08T03:16:53.686Z,11.9
2022-11-08T03:17:56.572Z,11.9
2022-11-08T03:19:00.301Z,11.9
2022-11-08T03:20:03.032Z,11.9
2022-11-08T03:21:06.057Z,11.9
2022-11-08T03:22:09.579Z,11.8
2022-11-08T03:23:13.580Z,11.8
2022-11-08T03:24:16.644Z,11.8
2022-11-08T03:25:20.074Z,11.8
2022-11-08T03:26:23.796Z,11.8
2022-11-08T03:27:26.930Z,11.9
2022-11-08T03:28:30.760Z,11.9
2022-11-08T03:29:33.557Z,11.8
2022-11-08T03:30:36.556Z,11.8
2022-11-08T03:31:39.622Z,11.8
2022-11-08T03:32:42.661Z,11.8
2022-11-08T03:33:45.450Z,11.8
2022-11-08T03:34:48.704Z,11.8
2022-11-08T03:35:52.077Z,11.8
2022-11-08T03:36:55.481Z,11.8
2022-11-08T03:37:59.131Z,11.8
2022-11-08T03:39:02.210Z,11.8
2022-11-08T03:40:05.718Z,11.8
2022-11-08T03:41:09.492Z,11.7
2022-11-08T03:42:12.441Z,11.7
2022-11-08T03:43:15.267Z,11.7
2022-11-08T03:44:18.362Z,11.8
2022-11-08T03:45:21.174Z,11.7
2022-11-08T03:46:24.563Z,11.7
2022-11-08T03:47:27.825Z,11.7
2022-11-08T03:48:31.222Z,11.7
2022-11-08T03:49:33.443Z,11.7
2022-11-08T03:50:36.957Z,11.7
2022-11-08T03:51:40.302Z,11.7
2022-11-08T03:52:43.124Z,11.7
2022-11-08T03:53:46.335Z,11.7
2022-11-08T03:54:49.402Z,11.7
2022-11-08T03:55:52.205Z,11.6
2022-11-08T03:56:55.375Z,11.6
2022-11-08T03:57:58.788Z,11.6
2022-11-08T03:59:01.889Z,11.6
2022-11-08T04:00:04.615Z,11.6
2022-11-08T04:01:08.201Z,11.6
2022-11-08T04:02:11.838Z,11.6
2022-11-08T04:03:15.606Z,11.6
2022-11-08T04:04:18.644Z,11.6
2022-11-08T04:05:20.990Z,11.6
2022-11-08T04:06:23.489Z,11.6
2022-11-08T04:07:26.589Z,11.6
2022-11-08T04:08:29.602Z,11.6
2022-11-08T04:09:32.503Z,11.6
2022-11-08T04:10:35.886Z,11.6
2022-11-08T04:11:38.605Z,11.6
2022-11-08T04:12:41.693Z,11.5
2022-11-08T04:13:44.882Z,11.6
2022-11-08T04:14:47.887Z,11.6
2022-11-08T04:15:51.300Z,11.6
2022-11-08T04:16:53.913Z,11.6
2022-11-08T04:17:56.535Z,11.6
2022-11-08T04:18:59.330Z,11.5
2022-11-08T04:20:02.160Z,11.6
2022-11-08T04:21:06.191Z,11.5
2022-11-08T04:22:08.736Z,11.5
2022-11-08T04:23:11.807Z,11.5
2022-11-08T04:24:15.063Z,11.5
2022-11-08T04:25:18.503Z,11.5
2022-11-08T04:26:21.703Z,11.4
2022-11-08T04:27:24.636Z,11.4
2022-11-08T04:28:28.039Z,11.4
2022-11-08T04:29:30.931Z,11.4
2022-11-08T04:30:33.736Z,11.4
2022-11-08T04:31:36.542Z,11.4
2022-11-08T04:32:39.712Z,11.4
2022-11-08T04:33:42.254Z,11.4
2022-11-08T04:34:45.248Z,11.4
2022-11-08T04:35:48.012Z,11.4
2022-11-08T04:36:51.173Z,11.4
2022-11-08T04:37:54.207Z,11.3
2022-11-08T04:38:57.366Z,11.3
2022-11-08T04:40:00.536Z,11.3
2022-11-08T04:41:04.006Z,11.2
2022-11-08T04:42:07.442Z,11.2
2022-11-08T04:43:10.520Z,11.2
2022-11-08T04:44:13.312Z,11.2
2022-11-08T04:45:16.124Z,11.2
2022-11-08T04:46:19.383Z,11.1
2022-11-08T04:47:21.940Z,11.1
2022-11-08T04:48:24.743Z,11.1
2022-11-08T04:49:27.346Z,11.1
2022-11-08T04:50:30.646Z,11.1
2022-11-08T04:51:34.074Z,11
2022-11-08T04:52:36.882Z,11
2022-11-08T04:53:39.948Z,11
2022-11-08T04:54:43.306Z,11
2022-11-08T04:55:46.408Z,11
2022-11-08T04:56:49.253Z,11
2022-11-08T04:57:52.439Z,11
2022-11-08T04:58:55.230Z,10.9
2022-11-08T04:59:57.781Z,10.9
2022-11-08T05:01:00.921Z,10.9
2022-11-08T05:02:04.816Z,10.8
2022-11-08T05:03:08.274Z,10.8
2022-11-08T05:04:11.236Z,10.8
2022-11-08T05:05:14.186Z,10.9
2022-11-08T05:06:16.985Z,10.9
2022-11-08T05:07:19.936Z,10.8
2022-11-08T05:08:22.720Z,10.8
2022-11-08T05:09:25.514Z,10.8
2022-11-08T05:10:28.513Z,10.8
2022-11-08T05:11:31.337Z,10.8
2022-11-08T05:12:34.709Z,10.8
2022-11-08T05:13:37.849Z,10.8
2022-11-08T05:14:41.843Z,10.8
2022-11-08T05:15:45.305Z,10.8
2022-11-08T05:16:49.007Z,10.8
2022-11-08T05:17:51.553Z,10.8
2022-11-08T05:18:54.674Z,10.7
2022-11-08T05:19:57.848Z,10.8
2022-11-08T05:21:01.273Z,10.7
2022-11-08T05:22:04.157Z,10.7
2022-11-08T05:23:06.798Z,10.7
2022-11-08T05:24:09.877Z,10.7
2022-11-08T05:25:13.221Z,10.7
2022-11-08T05:26:16.381Z,10.7
2022-11-08T05:27:19.661Z,10.6
2022-11-08T05:28:23.227Z,10.6
2022-11-08T05:29:26.684Z,10.6
2022-11-08T05:30:29.773Z,10.7
2022-11-08T05:31:32.897Z,10.6
2022-11-08T05:32:35.879Z,10.6
2022-11-08T05:33:38.987Z,10.6
2022-11-08T05:34:41.740Z,10.6
2022-11-08T05:35:44.523Z,10.6
2022-11-08T05:36:47.666Z,10.6
2022-11-08T05:37:49.834Z,10.6
2022-11-08T05:38:52.949Z,10.6
2022-11-08T05:39:55.950Z,10.6
2022-11-08T05:40:59.016Z,10.6
2022-11-08T05:42:02.457Z,10.6
2022-11-08T05:43:06.098Z,10.6
2022-11-08T05:44:09.568Z,10.6
2022-11-08T05:45:12.282Z,10.5
2022-11-08T05:46:15.108Z,10.5
2022-11-08T05:47:18.205Z,10.6
2022-11-08T05:48:22.513Z,10.6
2022-11-08T05:49:25.335Z,10.6
2022-11-08T05:50:28.549Z,10.5
2022-11-08T05:51:31.361Z,10.5
2022-11-08T05:52:34.081Z,10.5
2022-11-08T05:53:37.383Z,10.5
2022-11-08T05:54:40.411Z,10.4
2022-11-08T05:55:43.131Z,10.4
2022-11-08T05:56:45.845Z,10.4
2022-11-08T05:57:49.395Z,10.4
2022-11-08T05:58:52.508Z,10.4
2022-11-08T05:59:55.932Z,10.4
2022-11-08T06:00:58.518Z,10.4
2022-11-08T06:02:02.148Z,10.3
2022-11-08T06:03:05.673Z,10.3
2022-11-08T06:04:09.294Z,10.3
2022-11-08T06:05:11.771Z,10.3
2022-11-08T06:06:15.229Z,10.3
2022-11-08T06:07:18.337Z,10.3
2022-11-08T06:08:21.174Z,10.3
2022-11-08T06:09:24.334Z,10.3
2022-11-08T06:10:27.651Z,10.3
2022-11-08T06:11:31.144Z,10.2
2022-11-08T06:12:33.854Z,10.3
2022-11-08T06:13:36.643Z,10.3
2022-11-08T06:14:39.752Z,10.2
2022-11-08T06:15:42.939Z,10.2
2022-11-08T06:16:45.720Z,10.1
2022-11-08T06:17:48.846Z,10.1
2022-11-08T06:18:52.407Z,10.1
2022-11-08T06:19:55.285Z,10.2
2022-11-08T06:20:59.037Z,10.2
2022-11-08T06:22:02.341Z,10.2
2022-11-08T06:23:04.953Z,10.2
2022-11-08T06:24:07.661Z,10.2
2022-11-08T06:25:11.205Z,10.2
2022-11-08T06:26:14.307Z,10.2
2022-11-08T06:27:17.210Z,10.2
2022-11-08T06:28:19.922Z,10.2
2022-11-08T06:29:23.358Z,10.2
2022-11-08T06:30:26.552Z,10.2
2022-11-08T06:31:29.743Z,10.2
2022-11-08T06:32:33.168Z,10.2
2022-11-08T06:33:35.900Z,10.2
2022-11-08T06:34:39.782Z,10.2
2022-11-08T06:35:42.936Z,10.2
2022-11-08T06:36:45.849Z,10.1
2022-11-08T06:37:49.059Z,10.2
2022-11-08T06:38:52.253Z,10.2
2022-11-08T06:39:54.972Z,10.2
2022-11-08T06:40:58.792Z,10.2
2022-11-08T06:42:01.899Z,10.2
2022-11-08T06:43:04.982Z,10.2
2022-11-08T06:44:07.683Z,10.2
2022-11-08T06:45:10.806Z,10.2
2022-11-08T06:46:14.091Z,10.2
2022-11-08T06:47:16.901Z,10.2
2022-11-08T06:48:20.560Z,10.2
2022-11-08T06:49:24.009Z,10.1
2022-11-08T06:50:28.998Z,10.2
2022-11-08T06:51:32.347Z,10.1
2022-11-08T06:52:35.544Z,10.1
2022-11-08T06:53:38.761Z,10.1
2022-11-08T06:54:41.280Z,10.1
2022-11-08T06:55:44.284Z,10.2
2022-11-08T06:56:47.451Z,10.1
2022-11-08T06:57:50.414Z,10.2
2022-11-08T06:58:53.571Z,10.2
2022-11-08T06:59:56.708Z,10.2
2022-11-08T07:00:59.870Z,10.2
2022-11-08T07:02:03.185Z,10.2
2022-11-08T07:03:07.609Z,10.2
2022-11-08T07:04:10.798Z,10.2
2022-11-08T07:05:13.515Z,10.2
2022-11-08T07:06:16.882Z,10.3
2022-11-08T07:07:19.849Z,10.3
2022-11-08T07:08:25.886Z,10.3
2022-11-08T07:09:29.253Z,10.3
2022-11-08T07:10:32.203Z,10.3
2022-11-08T07:11:34.931Z,10.3
2022-11-08T07:12:38.372Z,10.3
2022-11-08T07:13:41.856Z,10.3
2022-11-08T07:14:44.930Z,10.3
2022-11-08T07:15:48.023Z,10.3
2022-11-08T07:16:51.743Z,10.4
2022-11-08T07:17:55.523Z,10.3
2022-11-08T07:18:59.309Z,10.4
2022-11-08T07:20:02.106Z,10.4
2022-11-08T07:21:04.781Z,10.4
2022-11-08T07:22:08.166Z,10.4
2022-11-08T07:23:11.674Z,10.4
2022-11-08T07:24:14.770Z,10.5
2022-11-08T07:25:17.836Z,10.5
2022-11-08T07:26:20.471Z,10.6
2022-11-08T07:27:23.094Z,10.6
2022-11-08T07:28:26.169Z,10.7
2022-11-08T07:29:29.443Z,10.7
2022-11-08T07:30:32.776Z,10.7
2022-11-08T07:31:35.830Z,10.7
2022-11-08T07:32:38.935Z,10.8
2022-11-08T07:33:42.240Z,10.8
2022-11-08T07:34:45.516Z,10.8
2022-11-08T07:35:48.312Z,10.8
2022-11-08T07:36:51.455Z,10.8
2022-11-08T07:37:54.284Z,10.8
2022-11-08T07:39:02.465Z,10.9
2022-11-08T07:40:10.092Z,10.9
2022-11-08T07:41:13.183Z,10.9
2022-11-08T07:42:16.370Z,10.9
2022-11-08T07:43:19.366Z,11
2022-11-08T07:44:22.571Z,10.9
2022-11-08T07:45:26.636Z,11
2022-11-08T07:46:29.710Z,11.1
2022-11-08T07:47:32.798Z,11.1
2022-11-08T07:48:35.317Z,11.1
2022-11-08T07:49:38.506Z,11.1
2022-11-08T07:50:43.067Z,11.2
2022-11-08T07:51:46.902Z,11.3
2022-11-08T07:52:50.038Z,11.3
2022-11-08T07:53:53.498Z,11.3
2022-11-08T07:54:56.856Z,11.3
2022-11-08T07:56:00.330Z,11.4
2022-11-08T07:57:03.416Z,11.3
2022-11-08T07:58:06.445Z,11.4
2022-11-08T07:59:09.307Z,11.4
2022-11-08T08:00:12.373Z,11.5
2022-11-08T08:01:16.081Z,11.5
2022-11-08T08:02:20.125Z,11.5
2022-11-08T08:03:25.660Z,11.4
2022-11-08T08:04:28.656Z,11.5
2022-11-08T08:05:31.121Z,11.5
2022-11-08T08:06:34.322Z,11.6
2022-11-08T08:07:37.709Z,11.6
2022-11-08T08:08:41.100Z,11.6
2022-11-08T08:09:44.280Z,11.7
2022-11-08T08:10:48.289Z,11.8
2022-11-08T08:11:51.851Z,11.8
2022-11-08T08:12:55.544Z,11.8
2022-11-08T08:13:58.059Z,11.9
2022-11-08T08:15:00.647Z,11.8
2022-11-08T08:16:04.331Z,11.9
2022-11-08T08:17:08.068Z,11.9
2022-11-08T08:18:11.169Z,12
2022-11-08T08:19:14.795Z,12
2022-11-08T08:20:18.132Z,12.1
2022-11-08T08:21:21.165Z,12.2
2022-11-08T08:22:24.348Z,12.2
2022-11-08T08:23:28.102Z,12.3
2022-11-08T08:24:30.893Z,12.4
2022-11-08T08:25:34.022Z,12.4
2022-11-08T08:26:38.017Z,12.4
2022-11-08T08:27:40.710Z,12.5
2022-11-08T08:28:43.527Z,12.4
2022-11-08T08:29:47.064Z,12.5
2022-11-08T08:30:50.709Z,12.5
2022-11-08T08:31:54.520Z,12.6
2022-11-08T08:33:30.683Z,12.7
2022-11-08T08:34:34.346Z,12.6
2022-11-08T08:35:37.777Z,12.6
2022-11-08T08:36:40.890Z,12.7
2022-11-08T08:37:44.426Z,12.6
2022-11-08T08:38:47.603Z,12.6
2022-11-08T08:39:50.302Z,12.7
2022-11-08T08:40:53.769Z,12.6
2022-11-08T08:41:56.926Z,12.7
2022-11-08T08:42:59.751Z,12.8
2022-11-08T08:44:02.905Z,12.9
2022-11-08T08:45:14.620Z,12.8
2022-11-08T08:46:18.226Z,12.8
2022-11-08T08:47:21.399Z,12.8
2022-11-08T08:48:24.365Z,12.9
2022-11-08T08:49:27.874Z,13.1
2022-11-08T08:50:31.186Z,13.2
2022-11-08T08:51:34.264Z,13.3
2022-11-08T08:52:36.897Z,13.3
2022-11-08T08:53:40.282Z,13.3
2022-11-08T08:54:43.796Z,13.4
2022-11-08T08:55:46.867Z,13.4
2022-11-08T08:56:50.320Z,13.5
2022-11-08T08:57:53.966Z,13.5
2022-11-08T09:02:43.998Z,13.9
2022-11-08T09:03:47.585Z,13.8
2022-11-08T09:04:51.030Z,13.9
2022-11-08T09:05:53.689Z,14.1
2022-11-08T09:06:57.144Z,14.3
2022-11-08T09:08:00.058Z,14.4
2022-11-08T09:09:04.073Z,14.4
2022-11-08T09:10:07.256Z,14.3
2022-11-08T09:11:10.406Z,14.2
2022-11-08T09:12:16.357Z,14.4
2022-11-08T09:13:21.627Z,14.4
2022-11-08T09:14:24.977Z,14.4
2022-11-08T09:15:28.393Z,14.6
2022-11-08T09:16:32.167Z,14.8
2022-11-08T09:17:35.376Z,15.1
2022-11-08T09:18:38.454Z,15.2
2022-11-08T09:19:41.991Z,15.3
2022-11-08T09:20:45.741Z,15.3
2022-11-08T09:21:48.700Z,15.3
2022-11-08T09:22:52.168Z,15.2
2022-11-08T09:23:55.285Z,15.2
2022-11-08T09:24:58.583Z,15.2
2022-11-08T09:26:01.669Z,15.4
2022-11-08T09:27:05.400Z,15.4
2022-11-08T09:28:08.571Z,15.1
2022-11-08T09:29:11.999Z,15.3
2022-11-08T09:30:14.890Z,15.4
2022-11-08T09:31:17.714Z,15.5
2022-11-08T09:33:03.548Z,15.6
2022-11-08T09:34:07.631Z,15.7
2022-11-08T09:35:11.187Z,15.5
2022-11-08T09:36:14.360Z,15.3
2022-11-08T09:37:17.169Z,15.4
2022-11-08T09:38:21.974Z,15.4
2022-11-08T09:39:25.434Z,15.5
2022-11-08T09:40:28.970Z,15.6
2022-11-08T09:41:32.340Z,15.4
2022-11-08T09:42:35.239Z,15.4
2022-11-08T09:43:38.335Z,15.5
2022-11-08T09:44:41.706Z,15.5
2022-11-08T09:45:45.159Z,15.3
2022-11-08T09:46:48.639Z,15.2
2022-11-08T09:47:54.847Z,15.2
2022-11-08T09:48:58.296Z,15.2
2022-11-08T09:50:02.044Z,15.1
2022-11-08T09:51:05.266Z,15.1
2022-11-08T09:52:07.995Z,15.2
2022-11-08T09:53:10.722Z,15.2
2022-11-08T09:54:21.195Z,15.2
2022-11-08T09:55:24.404Z,15.3
2022-11-08T09:56:27.868Z,15.4
2022-11-08T09:57:30.851Z,15.3
2022-11-08T09:58:33.404Z,15.5
2022-11-08T09:59:36.342Z,15.5
2022-11-08T10:00:39.830Z,15.5
2022-11-08T10:01:43.363Z,15.5
2022-11-08T10:02:46.269Z,15.7
2022-11-08T10:03:49.342Z,15.8
2022-11-08T10:04:51.802Z,16
2022-11-08T10:05:55.069Z,16.1
2022-11-08T10:07:04.529Z,16.2
2022-11-08T10:08:07.648Z,16.3
2022-11-08T10:09:11.127Z,16.3
2022-11-08T10:10:14.553Z,16.4
2022-11-08T10:11:18.425Z,16.4
2022-11-08T10:12:21.884Z,16.6
2022-11-08T10:13:25.022Z,16.6
2022-11-08T10:14:27.745Z,16.5
2022-11-08T10:15:30.872Z,16.3
2022-11-08T10:16:34.626Z,16.5
2022-11-08T10:17:37.797Z,16.5
2022-11-08T10:18:41.534Z,16.4
2022-11-08T10:19:45.004Z,16.5
2022-11-08T10:20:48.582Z,16.6
2022-11-08T10:21:51.466Z,16.5
2022-11-08T10:22:55.015Z,16.5
2022-11-08T10:23:58.375Z,16.6
2022-11-08T10:25:01.485Z,16.7
2022-11-08T10:26:04.562Z,16.7
2022-11-08T10:27:07.342Z,17
2022-11-08T10:28:10.999Z,17.1
2022-11-08T10:29:14.397Z,17.3
2022-11-08T10:30:16.919Z,17.3
2022-11-08T10:31:20.624Z,17.1
2022-11-08T10:32:25.490Z,16.8
2022-11-08T10:33:28.313Z,16.9
2022-11-08T10:34:31.445Z,17
2022-11-08T10:35:34.441Z,17.1
2022-11-08T10:36:38.403Z,17.3
2022-11-08T10:37:40.721Z,17.4
2022-11-08T10:38:43.918Z,17.3
2022-11-08T10:39:46.733Z,17.2
2022-11-08T10:40:49.806Z,17.1
2022-11-08T10:41:52.510Z,17.2
2022-11-08T10:42:55.264Z,17.4
2022-11-08T10:43:58.649Z,17.4
2022-11-08T10:45:01.501Z,17.4
2022-11-08T10:46:04.025Z,17.2
2022-11-08T10:47:06.364Z,17.1
2022-11-08T10:48:09.713Z,17.2
2022-11-08T10:49:13.053Z,17.3
2022-11-08T10:50:16.013Z,17.2
2022-11-08T10:51:18.821Z,17.1
2022-11-08T10:52:22.309Z,17
2022-11-08T10:53:25.457Z,17.1
2022-11-08T10:54:28.029Z,17.3
2022-11-08T10:55:30.926Z,17.3
2022-11-08T10:56:39.348Z,17.3
2022-11-08T10:57:42.349Z,17.3
2022-11-08T10:58:44.810Z,17.4
2022-11-08T10:59:48.222Z,17.5
2022-11-08T11:00:50.741Z,17.6
2022-11-08T11:01:54.198Z,17.5
2022-11-08T11:02:57.093Z,17.6
2022-11-08T11:04:00.440Z,17.4
2022-11-08T11:05:02.608Z,17.4
2022-11-08T11:06:05.707Z,17.4
2022-11-08T11:07:08.479Z,17.3
2022-11-08T11:08:11.563Z,17.1
2022-11-08T11:09:15.017Z,17
2022-11-08T11:10:18.277Z,17.1
2022-11-08T11:11:20.676Z,17.2
2022-11-08T11:12:24.115Z,17.3
2022-11-08T11:14:30.463Z,17
2022-11-08T11:15:33.926Z,17
2022-11-08T11:16:36.650Z,17
2022-11-08T11:17:42.201Z,16.9
2022-11-08T11:18:45.484Z,17
2022-11-08T11:19:49.127Z,17.2
2022-11-08T11:20:52.570Z,17.3
2022-11-08T11:21:56.069Z,17.1
2022-11-08T11:22:59.134Z,16.9
2022-11-08T11:24:01.695Z,16.8
2022-11-08T11:25:05.444Z,16.9
2022-11-08T11:26:08.184Z,16.9
2022-11-08T11:27:11.379Z,17
2022-11-08T11:28:13.630Z,16.8
2022-11-08T11:29:16.497Z,16.8
2022-11-08T11:30:19.327Z,16.9
2022-11-08T11:31:22.789Z,16.7
2022-11-08T11:32:26.166Z,16.6
2022-11-08T11:33:29.726Z,16.6
2022-11-08T11:34:32.874Z,16.8
2022-11-08T11:35:36.345Z,16.9
2022-11-08T11:36:38.587Z,17
2022-11-08T11:37:41.131Z,17
2022-11-08T11:38:43.936Z,17
2022-11-08T11:39:46.389Z,17
2022-11-08T11:40:49.837Z,17
2022-11-08T11:41:53.138Z,17
2022-11-08T11:42:56.261Z,17
2022-11-08T11:43:59.405Z,17.1
2022-11-08T11:45:02.466Z,17.1
2022-11-08T11:46:05.794Z,17
2022-11-08T11:47:08.900Z,17
2022-11-08T11:48:11.865Z,16.8
2022-11-08T11:49:14.680Z,16.8
2022-11-08T11:50:17.554Z,16.9
2022-11-08T11:51:20.675Z,17.1
2022-11-08T11:52:24.222Z,17
2022-11-08T11:53:27.140Z,16.9
2022-11-08T11:54:30.522Z,16.9
2022-11-08T11:55:32.990Z,17
2022-11-08T11:56:35.890Z,17
2022-11-08T11:57:38.992Z,17.1
2022-11-08T11:58:42.050Z,17.1
2022-11-08T11:59:44.760Z,17.3
2022-11-08T12:00:48.035Z,17.3
2022-11-08T12:01:51.923Z,17.3
2022-11-08T12:02:55.126Z,17.3
2022-11-08T12:03:58.042Z,17.4
2022-11-08T12:05:00.212Z,17.2
2022-11-08T12:06:03.408Z,17.2
2022-11-08T12:07:07.972Z,17.1
2022-11-08T12:08:11.446Z,17
2022-11-08T12:09:15.323Z,17
2022-11-08T12:10:18.511Z,17
2022-11-08T12:11:21.686Z,17
2022-11-08T12:12:24.681Z,17
2022-11-08T12:13:27.229Z,17.1
2022-11-08T12:14:30.069Z,17
2022-11-08T12:15:33.233Z,16.9
2022-11-08T12:16:36.313Z,17
2022-11-08T12:17:39.761Z,17
2022-11-08T12:18:47.904Z,17.1
2022-11-08T12:19:51.802Z,17.1
2022-11-08T12:20:54.876Z,17.2
2022-11-08T12:21:58.203Z,17.2
2022-11-08T12:23:01.306Z,17.1
2022-11-08T12:24:03.848Z,17
2022-11-08T12:25:06.304Z,16.9
2022-11-08T12:26:09.450Z,16.9
2022-11-08T12:27:12.192Z,16.8
2022-11-08T12:28:15.163Z,16.8
2022-11-08T12:29:19.204Z,16.8
2022-11-08T12:30:22.585Z,16.8
2022-11-08T12:31:25.311Z,16.7
2022-11-08T12:32:28.788Z,16.6
2022-11-08T12:33:32.251Z,16.7
2022-11-08T12:34:34.904Z,16.8
2022-11-08T12:35:37.736Z,16.6
2022-11-08T12:36:40.796Z,16.7
2022-11-08T12:37:44.260Z,16.7
2022-11-08T12:38:47.407Z,16.7
2022-11-08T12:39:50.955Z,16.8
2022-11-08T12:40:53.857Z,16.7
2022-11-08T12:41:56.372Z,16.7
2022-11-08T12:42:59.188Z,16.6
2022-11-08T12:44:03.187Z,16.6
2022-11-08T12:45:07.281Z,16.6
2022-11-08T12:46:10.412Z,16.5
2022-11-08T12:47:14.408Z,16.5
2022-11-08T12:48:19.673Z,16.5
2022-11-08T12:49:24.176Z,16.5
2022-11-08T12:50:27.363Z,16.5
2022-11-08T12:51:30.160Z,16.5
2022-11-08T12:52:33.156Z,16.5
2022-11-08T12:53:35.969Z,16.4
2022-11-08T12:54:38.842Z,16.4
2022-11-08T12:55:42.323Z,16.4
2022-11-08T12:56:45.077Z,16.3
2022-11-08T12:57:48.348Z,16.3
2022-11-08T12:58:50.989Z,16.3
2022-11-08T12:59:54.720Z,16.3
2022-11-08T13:00:58.365Z,16.2
2022-11-08T13:02:02.302Z,16.3
2022-11-08T13:03:05.467Z,16.3
2022-11-08T13:04:08.728Z,16.2
2022-11-08T13:05:11.542Z,16.1
2022-11-08T13:06:14.545Z,16.2
2022-11-08T13:07:18.137Z,16.1
2022-11-08T13:08:22.901Z,16.1
2022-11-08T13:09:26.703Z,16
2022-11-08T13:10:29.805Z,16
2022-11-08T13:11:33.149Z,15.9
2022-11-08T13:12:36.564Z,15.9
2022-11-08T13:13:39.562Z,15.9
2022-11-08T13:14:43.333Z,15.8
2022-11-08T13:15:46.759Z,15.9
2022-11-08T13:16:50.162Z,15.9
2022-11-08T13:17:53.335Z,15.8
2022-11-08T13:18:56.475Z,15.8
2022-11-08T13:20:07.309Z,15.8
2022-11-08T13:21:10.375Z,15.8
2022-11-08T13:22:13.205Z,15.7
2022-11-08T13:23:15.988Z,15.7
2022-11-08T13:24:46.869Z,15.7
2022-11-08T13:25:50.181Z,15.7
2022-11-08T13:27:00.395Z,15.8
2022-11-08T13:28:03.802Z,15.7
2022-11-08T13:29:07.032Z,15.7
2022-11-08T13:30:09.945Z,15.6
2022-11-08T13:31:13.212Z,15.5
2022-11-08T13:32:16.305Z,15.4
2022-11-08T13:33:19.419Z,15.4
2022-11-08T13:34:21.855Z,15.4
2022-11-08T13:35:25.357Z,15.4
2022-11-08T13:36:28.537Z,15.4
2022-11-08T13:37:31.721Z,15.4
2022-11-08T13:38:34.725Z,15.4
2022-11-08T13:39:37.338Z,15.4
2022-11-08T13:40:40.821Z,15.4
2022-11-08T13:41:44.341Z,15.4
2022-11-08T13:42:46.962Z,15.4
2022-11-08T13:43:50.385Z,15.4
2022-11-08T13:44:53.325Z,15.3
2022-11-08T13:45:56.348Z,15.3
2022-11-08T13:46:59.476Z,15.2
2022-11-08T13:48:02.572Z,15.3
2022-11-08T13:49:05.579Z,15.2
2022-11-08T13:50:09.080Z,15.2
2022-11-08T13:51:12.036Z,15.2
2022-11-08T13:52:14.593Z,15.1
2022-11-08T13:53:17.782Z,15.1
2022-11-08T13:54:20.592Z,15.1
2022-11-08T13:55:23.573Z,15.1
2022-11-08T13:56:27.310Z,15
2022-11-08T13:57:30.684Z,15
2022-11-08T13:58:33.961Z,14.9
2022-11-08T13:59:37.459Z,14.9
2022-11-08T14:00:40.621Z,14.9
2022-11-08T14:01:44.447Z,14.9
2022-11-08T14:02:47.413Z,14.9
2022-11-08T14:03:50.230Z,15
2022-11-08T14:04:53.408Z,15
2022-11-08T14:05:56.855Z,14.9
2022-11-08T14:07:00.544Z,14.9
2022-11-08T14:08:03.922Z,14.9
2022-11-08T14:09:06.766Z,14.9
2022-11-08T14:10:09.851Z,14.9
2022-11-08T14:11:12.928Z,14.9
2022-11-08T14:12:15.452Z,14.9